createdAt,value
2022-11-16T00:00:28.102Z,89.28
2022-11-16T00:02:59.388Z,88.87
2022-11-16T00:05:30.018Z,89.12
2022-11-16T00:08:01.421Z,88.90
2022-11-16T00:10:32.163Z,88.83
2022-11-16T00:13:03.024Z,89.17
2022-11-16T00:15:36.480Z,89.10
2022-11-16T00:18:07.603Z,89.06
2022-11-16T00:20:38.109Z,88.85
2022-11-16T00:23:08.849Z,89.00
2022-11-16T00:25:39.261Z,89.12
2022-11-16T00:28:09.899Z,89.47
2022-11-16T00:30:43.013Z,89.36
2022-11-16T00:33:17.817Z,89.58
2022-11-16T00:35:48.554Z,89.83
2022-11-16T00:38:19.129Z,89.91
2022-11-16T00:40:49.620Z,90.00
2022-11-16T00:43:20.406Z,90.00
2022-11-16T00:45:53.857Z,90.46
2022-11-16T00:48:24.426Z,90.21
2022-11-16T00:50:55.058Z,90.08
2022-11-16T00:53:26.457Z,90.27
2022-11-16T00:55:57.548Z,90.04
2022-11-16T00:58:28.275Z,90.03
2022-11-16T01:01:10.994Z,90.08
2022-11-16T01:03:42.085Z,89.99
2022-11-16T01:06:17.808Z,89.52
2022-11-16T01:08:48.338Z,89.32
2022-11-16T01:11:32.577Z,89.23
2022-11-16T01:14:05.672Z,85.67
2022-11-16T01:16:38.840Z,81.47
2022-11-16T01:19:09.547Z,80.64
2022-11-16T01:21:40.700Z,84.61
2022-11-16T01:24:11.289Z,87.61
2022-11-16T01:26:41.806Z,89.36
2022-11-16T01:29:12.427Z,91.79
2022-11-16T01:31:49.898Z,92.93
2022-11-16T01:34:20.452Z,93.60
2022-11-16T01:36:52.596Z,93.80
2022-11-16T01:39:23.288Z,94.01
2022-11-16T01:41:57.954Z,93.92
2022-11-16T01:45:09.985Z,94.05
2022-11-16T01:47:43.197Z,94.26
2022-11-16T01:50:19.799Z,94.30
2022-11-16T01:52:57.356Z,99.43
2022-11-16T01:55:31.704Z,100.00
2022-11-16T01:58:28.017Z,99.40
2022-11-16T02:01:10.043Z,98.41
2022-11-16T02:03:50.354Z,98.27
2022-11-16T02:06:35.831Z,97.61
2022-11-16T02:09:43.879Z,97.32
2022-11-16T02:12:39.482Z,96.30
2022-11-16T02:15:19.051Z,95.57
2022-11-16T02:18:05.001Z,95.19
2022-11-16T02:20:54.627Z,94.38
2022-11-16T02:23:59.408Z,93.85
2022-11-16T02:26:48.636Z,93.16
2022-11-16T02:29:33.049Z,92.65
2022-11-16T02:32:07.892Z,92.24
2022-11-16T02:34:41.524Z,91.58
2022-11-16T02:37:17.869Z,91.35
2022-11-16T02:39:51.487Z,90.84
2022-11-16T02:42:29.278Z,90.44
2022-11-16T02:45:04.270Z,90.24
2022-11-16T02:47:38.415Z,90.09
2022-11-16T02:50:14.345Z,89.84
2022-11-16T02:52:44.842Z,89.87
2022-11-16T02:55:15.833Z,89.57
2022-11-16T02:57:54.470Z,89.30
2022-11-16T03:00:31.176Z,89.28
2022-11-16T03:03:16.738Z,88.91
2022-11-16T03:05:53.376Z,88.53
2022-11-16T03:08:29.777Z,88.08
2022-11-16T03:11:18.780Z,88.29
2022-11-16T03:13:50.603Z,88.15
2022-11-16T03:16:28.344Z,87.68
2022-11-16T03:19:03.489Z,88.18
2022-11-16T03:21:40.248Z,87.82
2022-11-16T03:24:12.132Z,88.00
2022-11-16T03:26:50.119Z,88.19
2022-11-16T03:29:26.763Z,88.27
2022-11-16T03:32:11.854Z,88.11
2022-11-16T03:34:49.258Z,88.25
2022-11-16T03:37:20.078Z,88.26
2022-11-16T03:39:51.904Z,88.46
2022-11-16T03:42:25.230Z,88.75
2022-11-16T03:44:56.771Z,88.49
2022-11-16T03:47:31.609Z,88.54
2022-11-16T03:50:02.161Z,88.26
2022-11-16T03:52:34.346Z,88.58
2022-11-16T03:55:05.106Z,88.13
2022-11-16T03:57:37.369Z,88.39
2022-11-16T04:00:09.205Z,88.47
2022-11-16T04:02:48.859Z,88.69
2022-11-16T04:05:37.308Z,88.65
2022-11-16T04:08:20.911Z,88.46
2022-11-16T04:11:03.667Z,88.54
2022-11-16T04:13:49.562Z,88.72
2022-11-16T04:16:32.968Z,88.59
2022-11-16T04:19:18.762Z,88.69
2022-11-16T04:22:06.012Z,88.90
2022-11-16T04:24:41.633Z,89.00
2022-11-16T04:27:28.642Z,88.55
2022-11-16T04:30:02.189Z,88.77
2022-11-16T04:32:48.416Z,88.60
2022-11-16T04:35:43.997Z,88.80
2022-11-16T04:38:14.565Z,88.71
2022-11-16T04:40:45.078Z,88.60
2022-11-16T04:43:18.051Z,88.94
2022-11-16T04:46:01.603Z,88.61
2022-11-16T04:48:39.579Z,88.53
2022-11-16T04:51:13.218Z,88.63
2022-11-16T04:53:43.993Z,88.85
2022-11-16T04:56:22.076Z,88.77
2022-11-16T04:58:52.675Z,88.70
2022-11-16T05:01:43.776Z,88.78
2022-11-16T05:04:14.728Z,84.40
2022-11-16T05:06:49.902Z,80.66
2022-11-16T05:09:20.781Z,81.60
2022-11-16T05:11:51.338Z,84.28
2022-11-16T05:14:21.901Z,85.97
2022-11-16T05:16:53.005Z,89.27
2022-11-16T05:19:35.758Z,91.09
2022-11-16T05:22:09.271Z,92.33
2022-11-16T05:24:39.753Z,92.37
2022-11-16T05:27:12.557Z,93.33
2022-11-16T05:29:46.119Z,95.37
2022-11-16T05:32:21.203Z,99.82
2022-11-16T05:34:52.829Z,99.63
2022-11-16T05:37:27.019Z,99.34
2022-11-16T05:39:57.927Z,98.96
2022-11-16T05:42:38.640Z,98.92
2022-11-16T05:45:10.295Z,98.36
2022-11-16T05:47:40.801Z,98.36
2022-11-16T05:50:12.686Z,97.84
2022-11-16T05:52:47.766Z,97.51
2022-11-16T05:55:19.621Z,97.37
2022-11-16T05:57:50.519Z,97.02
2022-11-16T06:00:21.908Z,96.44
2022-11-16T06:02:55.629Z,96.02
2022-11-16T06:05:35.114Z,95.23
2022-11-16T06:08:11.380Z,95.00
2022-11-16T06:10:42.105Z,94.71
2022-11-16T06:13:12.668Z,93.97
2022-11-16T06:18:28.950Z,93.39
2022-11-16T06:20:59.483Z,93.23
2022-11-16T06:23:32.815Z,93.11
2022-11-16T06:26:03.610Z,92.89
2022-11-16T06:28:35.758Z,92.84
2022-11-16T06:31:08.103Z,92.57
2022-11-16T06:33:43.591Z,92.14
2022-11-16T06:36:27.646Z,92.14
2022-11-16T06:39:02.919Z,92.03
2022-11-16T06:41:41.241Z,91.99
2022-11-16T06:44:13.852Z,92.45
2022-11-16T06:46:54.343Z,92.85
2022-11-16T06:49:24.852Z,93.16
2022-11-16T06:51:57.397Z,93.36
2022-11-16T06:54:31.652Z,92.74
2022-11-16T06:57:02.191Z,92.36
2022-11-16T06:59:32.844Z,92.11
2022-11-16T07:02:03.466Z,92.02
2022-11-16T07:04:36.437Z,90.84
2022-11-16T07:07:08.327Z,90.54
2022-11-16T07:09:44.743Z,89.75
2022-11-16T07:12:16.089Z,89.69
2022-11-16T07:14:48.382Z,88.69
2022-11-16T07:17:18.925Z,87.43
2022-11-16T07:19:49.549Z,86.52
2022-11-16T07:22:20.475Z,85.67
2022-11-16T07:24:55.675Z,85.67
2022-11-16T07:27:27.067Z,84.99
2022-11-16T07:29:57.598Z,84.35
2022-11-16T07:32:48.437Z,84.26
2022-11-16T07:35:26.231Z,83.75
2022-11-16T07:37:56.867Z,83.25
2022-11-16T07:40:30.162Z,83.23
2022-11-16T07:43:01.488Z,82.68
2022-11-16T07:45:41.243Z,82.69
2022-11-16T07:48:13.976Z,82.20
2022-11-16T07:51:12.810Z,82.03
2022-11-16T07:53:50.131Z,81.86
2022-11-16T07:56:23.447Z,81.52
2022-11-16T07:58:54.126Z,81.16
2022-11-16T08:01:25.126Z,80.69
2022-11-16T08:03:57.044Z,80.26
2022-11-16T08:06:30.091Z,79.94
2022-11-16T08:09:01.215Z,79.63
2022-11-16T08:11:35.651Z,79.01
2022-11-16T08:14:06.179Z,78.73
2022-11-16T08:16:36.838Z,78.42
2022-11-16T08:19:15.894Z,78.05
2022-11-16T08:21:46.375Z,77.21
2022-11-16T08:24:19.240Z,76.82
2022-11-16T08:26:54.436Z,76.18
2022-11-16T08:29:24.962Z,76.12
2022-11-16T08:31:56.713Z,75.14
2022-11-16T08:34:27.411Z,75.29
2022-11-16T08:37:02.521Z,74.33
2022-11-16T08:39:41.683Z,74.89
2022-11-16T08:42:15.746Z,74.79
2022-11-16T08:44:50.219Z,74.83
2022-11-16T08:47:23.411Z,74.66
2022-11-16T08:49:56.910Z,74.31
2022-11-16T08:52:29.652Z,73.83
2022-11-16T08:55:01.630Z,73.46
2022-11-16T08:57:36.851Z,72.21
2022-11-16T09:00:14.231Z,72.34
2022-11-16T09:02:44.781Z,72.38
2022-11-16T09:05:15.476Z,72.06
2022-11-16T09:07:46.338Z,72.09
2022-11-16T09:10:19.211Z,72.06
2022-11-16T09:15:37.206Z,70.70
2022-11-16T09:18:07.741Z,70.30
2022-11-16T09:20:38.270Z,69.68
2022-11-16T09:23:08.759Z,69.77
2022-11-16T09:25:39.303Z,69.38
2022-11-16T09:28:12.519Z,69.17
2022-11-16T09:30:43.183Z,68.62
2022-11-16T09:33:14.078Z,67.66
2022-11-16T09:35:44.630Z,67.45
2022-11-16T09:38:22.115Z,67.35
2022-11-16T09:43:56.653Z,64.38
2022-11-16T09:46:32.527Z,64.25
2022-11-16T09:49:16.897Z,64.29
2022-11-16T09:51:53.998Z,61.94
2022-11-16T09:54:28.630Z,63.03
2022-11-16T09:57:07.941Z,62.51
2022-11-16T09:59:48.071Z,62.75
2022-11-16T10:02:24.238Z,62.36
2022-11-16T10:05:00.938Z,62.20
2022-11-16T10:07:41.774Z,61.54
2022-11-16T10:10:16.722Z,62.15
2022-11-16T10:12:52.317Z,61.69
2022-11-16T10:15:44.636Z,60.43
2022-11-16T10:18:25.366Z,60.54
2022-11-16T10:21:17.316Z,60.13
2022-11-16T10:24:03.409Z,58.37
2022-11-16T10:26:42.998Z,59.45
2022-11-16T10:29:40.114Z,59.89
2022-11-16T10:32:28.337Z,59.42
2022-11-16T10:35:03.450Z,58.45
2022-11-16T10:37:37.924Z,57.70
2022-11-16T10:40:21.316Z,56.81
2022-11-16T10:43:01.994Z,58.35
2022-11-16T10:45:41.735Z,57.45
2022-11-16T10:48:26.581Z,56.21
2022-11-16T10:50:57.625Z,55.83
2022-11-16T10:53:35.733Z,56.18
2022-11-16T10:56:17.995Z,52.12
2022-11-16T10:58:56.980Z,55.15
2022-11-16T11:01:36.937Z,55.38
2022-11-16T11:04:22.240Z,54.68
2022-11-16T11:06:55.085Z,53.39
2022-11-16T11:09:34.417Z,51.83
2022-11-16T11:12:32.211Z,52.76
2022-11-16T11:15:05.955Z,52.20
2022-11-16T11:17:38.674Z,52.63
2022-11-16T11:20:24.513Z,51.53
2022-11-16T11:22:58.915Z,53.27
2022-11-16T11:25:33.433Z,52.53
2022-11-16T11:28:09.873Z,53.32
2022-11-16T11:30:42.167Z,52.70
2022-11-16T11:33:15.345Z,53.28
2022-11-16T11:35:48.762Z,51.57
2022-11-16T11:38:19.267Z,52.16
2022-11-16T11:41:00.729Z,50.75
2022-11-16T11:43:33.852Z,51.04
2022-11-16T11:46:14.689Z,51.16
2022-11-16T11:48:52.743Z,51.40
2022-11-16T11:51:30.526Z,50.85
2022-11-16T11:54:02.703Z,50.16
2022-11-16T11:56:35.434Z,50.21
2022-11-16T11:59:07.725Z,50.35
2022-11-16T12:01:58.121Z,48.24
2022-11-16T12:05:04.058Z,48.96
2022-11-16T12:07:51.845Z,49.13
2022-11-16T12:10:29.763Z,50.42
2022-11-16T12:13:15.964Z,48.60
2022-11-16T12:16:00.897Z,49.29
2022-11-16T12:18:46.455Z,48.84
2022-11-16T12:21:18.170Z,49.27
2022-11-16T12:24:03.582Z,49.27
2022-11-16T12:26:46.262Z,49.41
2022-11-16T12:29:27.758Z,48.08
2022-11-16T12:32:16.696Z,46.51
2022-11-16T12:35:03.601Z,47.50
2022-11-16T12:37:40.876Z,48.02
2022-11-16T12:40:37.190Z,47.57
2022-11-16T12:43:20.123Z,48.39
2022-11-16T12:46:10.456Z,48.40
2022-11-16T12:49:10.825Z,48.56
2022-11-16T12:51:57.345Z,48.98
2022-11-16T12:55:24.066Z,48.64
2022-11-16T12:57:56.247Z,48.99
2022-11-16T13:00:26.774Z,49.58
2022-11-16T13:03:15.291Z,49.34
2022-11-16T13:06:03.385Z,49.60
2022-11-16T13:08:45.053Z,50.03
2022-11-16T13:11:21.818Z,50.22
2022-11-16T13:14:00.049Z,50.49
2022-11-16T13:16:32.145Z,50.07
2022-11-16T13:19:03.875Z,50.11
2022-11-16T13:21:51.697Z,50.33
2022-11-16T13:24:41.773Z,50.67
2022-11-16T13:27:30.045Z,50.99
2022-11-16T13:30:09.658Z,50.77
2022-11-16T13:33:02.615Z,50.73
2022-11-16T13:35:33.487Z,50.71
2022-11-16T13:38:03.930Z,51.13
2022-11-16T13:40:35.786Z,51.28
2022-11-16T13:43:22.818Z,51.21
2022-11-16T13:46:04.084Z,51.47
2022-11-16T13:48:38.733Z,52.04
2022-11-16T13:51:11.944Z,52.22
2022-11-16T13:54:43.162Z,52.80
2022-11-16T13:56:51.122Z,53.04
2022-11-16T13:59:29.244Z,53.18
2022-11-16T14:02:04.760Z,53.65
2022-11-16T14:04:43.982Z,53.61
2022-11-16T14:07:48.154Z,53.99
2022-11-16T14:10:48.307Z,54.23
2022-11-16T14:13:40.422Z,54.68
2022-11-16T14:16:47.608Z,54.95
2022-11-16T14:19:52.180Z,55.38
2022-11-16T14:22:39.922Z,55.50
2022-11-16T14:25:23.962Z,55.90
2022-11-16T14:28:02.998Z,56.18
2022-11-16T14:30:39.089Z,56.32
2022-11-16T14:33:17.152Z,56.90
2022-11-16T14:35:55.582Z,56.82
2022-11-16T14:38:34.143Z,57.11
2022-11-16T14:41:07.584Z,57.32
2022-11-16T14:43:46.672Z,57.86
2022-11-16T14:46:26.296Z,58.09
2022-11-16T14:48:59.134Z,58.37
2022-11-16T14:51:33.166Z,58.10
2022-11-16T14:54:14.549Z,58.39
2022-11-16T14:56:59.827Z,58.60
2022-11-16T14:59:31.378Z,59.01
2022-11-16T15:02:07.941Z,59.14
2022-11-16T15:04:38.450Z,59.41
2022-11-16T15:07:10.413Z,59.47
2022-11-16T15:09:47.347Z,59.85
2022-11-16T15:12:33.550Z,60.19
2022-11-16T15:15:09.201Z,60.36
2022-11-16T15:17:41.218Z,60.53
2022-11-16T15:20:20.129Z,60.64
2022-11-16T15:22:55.081Z,60.92
2022-11-16T15:25:34.266Z,60.97
2022-11-16T15:28:07.605Z,61.19
2022-11-16T15:30:40.527Z,61.21
2022-11-16T15:33:13.661Z,61.39
2022-11-16T15:35:44.311Z,61.72
2022-11-16T15:38:19.713Z,61.28
2022-11-16T15:40:53.551Z,61.03
2022-11-16T15:43:27.146Z,60.92
2022-11-16T15:45:58.909Z,61.07
2022-11-16T15:48:31.041Z,61.18
2022-11-16T15:51:10.256Z,61.23
2022-11-16T15:53:42.575Z,61.43
2022-11-16T15:56:18.783Z,61.52
2022-11-16T15:58:51.078Z,61.87
2022-11-16T16:01:23.120Z,61.77
2022-11-16T16:03:58.516Z,61.78
2022-11-16T16:06:48.681Z,62.09
2022-11-16T16:09:27.324Z,61.92
2022-11-16T16:12:19.048Z,61.72
2022-11-16T16:14:50.679Z,61.71
2022-11-16T16:17:26.773Z,61.63
2022-11-16T16:19:59.460Z,61.62
2022-11-16T16:22:33.636Z,61.86
2022-11-16T16:25:04.495Z,61.89
2022-11-16T16:27:42.639Z,62.18
2022-11-16T16:30:17.243Z,62.33
2022-11-16T16:32:51.852Z,62.44
2022-11-16T16:35:24.578Z,62.53
2022-11-16T16:38:01.068Z,62.60
2022-11-16T16:40:32.265Z,62.88
2022-11-16T16:43:05.347Z,63.04
2022-11-16T16:45:41.604Z,63.23
2022-11-16T16:48:13.097Z,63.39
2022-11-16T16:50:44.116Z,63.55
2022-11-16T16:53:16.040Z,63.71
2022-11-16T16:55:47.699Z,63.99
2022-11-16T16:58:21.027Z,64.54
2022-11-16T17:00:53.725Z,64.38
2022-11-16T17:03:28.525Z,64.58
2022-11-16T17:06:03.117Z,64.54
2022-11-16T17:08:36.957Z,64.97
2022-11-16T17:11:09.658Z,64.90
2022-11-16T17:13:45.211Z,65.14
2022-11-16T17:16:17.035Z,64.99
2022-11-16T17:18:48.106Z,63.52
2022-11-16T17:21:18.695Z,61.91
2022-11-16T17:23:49.283Z,64.88
2022-11-16T17:26:20.761Z,67.86
2022-11-16T17:28:58.241Z,70.22
2022-11-16T17:31:29.431Z,74.43
2022-11-16T17:34:00.495Z,77.10
2022-11-16T17:36:31.177Z,78.61
2022-11-16T17:39:01.736Z,79.69
2022-11-16T17:41:32.997Z,79.79
2022-11-16T17:44:08.360Z,81.63
2022-11-16T17:46:39.398Z,83.50
2022-11-16T17:49:09.977Z,85.39
2022-11-16T17:51:40.834Z,85.44
2022-11-16T17:54:11.476Z,83.26
2022-11-16T17:56:42.197Z,81.47
2022-11-16T17:59:15.781Z,80.91
2022-11-16T18:01:46.456Z,80.99
2022-11-16T18:04:17.108Z,82.24
2022-11-16T18:06:47.635Z,83.41
2022-11-16T18:09:18.985Z,83.63
2022-11-16T18:11:49.626Z,83.89
2022-11-16T18:14:23.161Z,84.07
2022-11-16T18:16:53.853Z,84.59
2022-11-16T18:19:24.415Z,86.21
2022-11-16T18:21:54.952Z,86.12
2022-11-16T18:24:25.910Z,85.92
2022-11-16T18:26:56.843Z,86.11
2022-11-16T18:29:30.410Z,85.77
2022-11-16T18:32:01.769Z,86.08
2022-11-16T18:34:32.483Z,86.03
2022-11-16T18:37:03.402Z,86.14
2022-11-16T18:39:34.252Z,86.15
2022-11-16T18:42:05.128Z,86.42
2022-11-16T18:44:38.299Z,86.58
2022-11-16T18:47:08.903Z,86.51
2022-11-16T18:49:39.504Z,86.47
2022-11-16T18:52:10.047Z,95.11
2022-11-16T18:54:40.637Z,93.16
2022-11-16T18:57:12.006Z,91.71
2022-11-16T18:59:45.093Z,90.50
2022-11-16T19:02:15.648Z,89.51
2022-11-16T19:04:46.383Z,88.30
2022-11-16T19:07:17.324Z,87.22
2022-11-16T19:09:47.818Z,86.32
2022-11-16T19:12:18.356Z,85.42
2022-11-16T19:14:51.512Z,84.90
2022-11-16T19:17:24.874Z,85.69
2022-11-16T19:19:55.504Z,85.29
2022-11-16T19:22:26.081Z,82.91
2022-11-16T19:24:59.488Z,85.70
2022-11-16T19:27:34.507Z,84.44
2022-11-16T19:30:08.486Z,83.42
2022-11-16T19:32:39.050Z,82.75
2022-11-16T19:35:11.112Z,82.57
2022-11-16T19:37:41.932Z,81.83
2022-11-16T19:40:13.406Z,80.93
2022-11-16T19:42:43.915Z,80.29
2022-11-16T19:45:17.367Z,80.03
2022-11-16T19:47:48.198Z,79.97
2022-11-16T19:50:19.720Z,79.45
2022-11-16T19:52:50.279Z,79.16
2022-11-16T19:55:20.761Z,79.06
2022-11-16T19:57:51.312Z,78.53
2022-11-16T20:00:24.575Z,78.31
2022-11-16T20:02:59.258Z,77.92
2022-11-16T20:05:30.467Z,77.78
2022-11-16T20:08:01.067Z,77.60
2022-11-16T20:10:32.548Z,77.42
2022-11-16T20:13:03.125Z,77.29
2022-11-16T20:15:36.261Z,77.29
2022-11-16T20:18:06.950Z,77.06
2022-11-16T20:20:37.772Z,76.71
2022-11-16T20:23:08.345Z,76.78
2022-11-16T20:25:43.845Z,76.98
2022-11-16T20:28:14.407Z,76.94
2022-11-16T20:30:51.475Z,77.01
2022-11-16T20:33:22.089Z,77.44
2022-11-16T20:35:52.784Z,77.12
2022-11-16T20:38:23.359Z,77.58
2022-11-16T20:40:53.811Z,77.38
2022-11-16T20:43:24.408Z,77.53
2022-11-16T20:46:00.211Z,77.19
2022-11-16T20:48:30.879Z,77.17
2022-11-16T20:51:01.461Z,77.29
2022-11-16T20:53:32.246Z,76.96
2022-11-16T20:56:04.108Z,77.21
2022-11-16T20:58:35.509Z,77.03
2022-11-16T21:01:11.125Z,77.08
2022-11-16T21:03:42.696Z,76.87
2022-11-16T21:06:14.014Z,77.17
2022-11-16T21:08:45.294Z,77.03
2022-11-16T21:11:17.526Z,77.24
2022-11-16T21:14:01.164Z,77.24
2022-11-16T21:16:34.922Z,77.27
2022-11-16T21:19:06.446Z,77.07
2022-11-16T21:21:38.214Z,77.04
2022-11-16T21:24:09.513Z,77.33
2022-11-16T21:26:41.071Z,77.25
2022-11-16T21:29:11.554Z,77.50
2022-11-16T21:31:44.642Z,77.69
2022-11-16T21:34:15.070Z,77.36
2022-11-16T21:36:45.555Z,77.64
2022-11-16T21:39:16.079Z,77.57
2022-11-16T21:41:46.514Z,77.45
2022-11-16T21:44:17.118Z,77.78
2022-11-16T21:46:50.228Z,77.55
2022-11-16T21:49:20.863Z,77.76
2022-11-16T21:51:51.360Z,77.65
2022-11-16T21:54:42.040Z,76.13
2022-11-16T21:57:12.604Z,73.07
2022-11-16T21:59:43.151Z,73.98
2022-11-16T22:02:16.210Z,77.09
2022-11-16T22:04:59.003Z,81.85
2022-11-16T22:07:39.668Z,84.23
2022-11-16T22:10:13.112Z,85.73
2022-11-16T22:12:43.569Z,88.97
2022-11-16T22:15:14.895Z,90.54
2022-11-16T22:17:48.663Z,90.86
2022-11-16T22:20:20.053Z,90.36
2022-11-16T22:22:50.629Z,88.38
2022-11-16T22:25:21.202Z,87.10
2022-11-16T22:28:19.323Z,87.97
2022-11-16T22:30:44.217Z,91.04
2022-11-16T22:33:20.189Z,93.62
2022-11-16T22:35:50.793Z,94.16
2022-11-16T22:38:21.242Z,93.04
2022-11-16T22:40:53.622Z,90.39
2022-11-16T22:43:26.533Z,90.14
2022-11-16T22:46:00.855Z,90.52
2022-11-16T22:48:38.640Z,92.26
2022-11-16T22:51:10.646Z,94.60
2022-11-16T22:53:41.435Z,95.83
2022-11-16T22:56:13.652Z,95.91
2022-11-16T22:58:44.542Z,95.63
2022-11-16T23:01:15.111Z,96.23
2022-11-16T23:03:49.032Z,94.89
2022-11-16T23:06:19.813Z,93.52
2022-11-16T23:08:50.798Z,91.83
2022-11-16T23:11:36.196Z,93.26
2022-11-16T23:14:20.521Z,93.69
2022-11-16T23:16:51.414Z,95.96
2022-11-16T23:19:38.129Z,99.39
2022-11-16T23:22:21.580Z,99.45
2022-11-16T23:25:04.291Z,99.52
2022-11-16T23:27:43.736Z,99.29
2022-11-16T23:30:15.056Z,99.17
2022-11-16T23:32:45.592Z,99.64
2022-11-16T23:35:18.889Z,99.76
2022-11-16T23:37:57.372Z,99.14
2022-11-16T23:40:30.667Z,98.64
2022-11-16T23:43:13.651Z,97.65
2022-11-16T23:45:45.183Z,95.82
2022-11-16T23:48:17.384Z,96.16
2022-11-16T23:50:50.461Z,100.00
2022-11-16T23:53:20.963Z,100.00
2022-11-16T23:55:51.416Z,100.00
2022-11-16T23:58:21.946Z,100.00
